Latest Coastal Weather Observations for Eucla

IDS60701

Issued at 6:51 pm CST Tuesday 7 July 2015 (issued every 10 minutes, with the page automatically refreshed every 10 minutes)

About coastal observations | Map of coastal stations | Coastal observations for SA | Marine services | Other Formats
Station Details ID: 011003 Name: EUCLA Lat: -31.68 Lon: 128.90 Height: 93.1 m
Data from the previous 72 hours. | See also: Recent months at Eucla
Date/Time
CST
Temp

°C
Wind Pressure Rain
since 9am
mm
Weather Cloud Vis
km
Sea
Height
m
Swell
Dir
 
Speed
knots
Gust
knots
hPa Trend Height
m
Period
s
Dir
07/06:30pm 13.4 ENE 6 8 1020.9 - 0.0 - - - - - - -
07/06:00pm 14.3 E 6 9 1020.9 - 0.0 - - - - - - -
07/05:30pm 15.3 WNW 4 5 1020.7 - 0.0 - - - - - - -
07/05:00pm 17.8 NNW 7 10 1020.7 - 0.0 - - - - - - -
07/04:30pm 16.9 NNW 5 7 1020.6 - 0.0 Fine Mostly clear 40 - - - -
07/04:00pm 18.5 NNW 7 10 1020.6 - 0.0 - - - - - - -
07/03:30pm 17.5 WNW 3 7 1020.8 - 0.0 - - - - - - -
07/03:00pm 17.6 NW 5 7 1021.0 - 0.0 - - - - - - -
07/02:30pm 18.4 NW 7 13 1021.3 - 0.0 - - - - - - -
07/02:00pm 18.4 N 7 10 1021.8 - 0.0 - - - - - - -
07/01:30pm 17.9 NNW 6 10 1022.2 - 0.0 - - - - - - -
07/01:00pm 16.5 NNW 9 12 1022.8 - 0.0 - - - - - - -
07/12:30pm 17.2 NNW 9 15 1023.2 - 0.0 - - - - - - -
07/12:00pm 17.3 N 9 15 1023.6 - 0.0 - - - - - - -
07/11:30am 16.0 N 10 14 1024.0 - 0.0 - - - - - - -
07/11:00am 14.8 N 10 15 1024.0 - 0.0 - - - - - - -
07/10:30am 13.0 N 8 12 1024.0 - 0.0 Fine Partly cloudy 40 - - - -
07/10:00am 11.2 N 8 10 1023.9 - 0.0 - - - - - - -
07/09:30am 9.3 N 7 9 1023.9 - 0.0 - - - - - - -
07/09:00am 8.2 N 8 10 1023.8 - 0.0 - - - - - - -
07/08:30am 7.0 N 6 8 1023.7 - 0.0 - - - - - - -
07/08:00am 6.6 N 7 9 1023.4 - 0.0 - - - - - - -
07/07:30am 6.0 N 7 9 1023.2 - 0.0 - - - - - - -
07/07:00am 5.0 N 7 9 1022.8 - 0.0 - - - - - - -
07/06:30am 4.8 N 7 8 1022.5 - 0.0 - - - - - - -
07/06:00am 5.3 N 7 8 1022.4 - 0.0 - - - - - - -
07/05:30am 5.6 N 7 8 1022.3 - 0.0 - - - - - - -
07/05:00am 6.5 N 7 9 1022.5 - 0.0 - - - - - - -
07/04:30am 7.1 N 5 6 1022.6 - 0.0 - - - - - - -
07/04:00am 7.2 NNE 6 7 1022.7 - 0.0 - - - - - - -
07/03:30am 6.0 N 6 7 1022.7 - 0.0 - - - - - - -
07/03:00am 5.5 N 6 7 1022.6 - 0.0 - - - - - - -
07/02:30am 5.4 NNE 6 8 1022.6 - 0.0 - - - - - - -
07/02:00am 4.7 N 6 7 1022.7 - 0.0 - - - - - - -
07/01:30am 4.9 NNE 6 6 1022.7 - 0.0 - - - - - - -
07/01:00am 5.2 NNE 6 6 1022.8 - 0.0 - - - - - - -
07/12:30am 5.7 N 5 5 1023.0 - 0.0 - - - - - - -
07/12:00am 6.0 N 5 6 1023.2 - 0.0 - - - - - - -
 
Date/Time
CST
Temp

°C
Wind Pressure Rain
since 9am
mm
Weather Cloud Vis
km
Sea
Height
m
Swell
Dir
 
Speed
knots
Gust
knots
hPa Trend Height
m
Period
s
Dir
06/11:30pm 10.6 E 4 6 1023.3 - 0.0 - - - - - - -
06/11:00pm 10.9 ESE 5 6 1023.4 - 0.0 - - - - - - -
06/10:30pm 9.8 E 4 6 1023.5 - 0.0 - - - - - - -
06/10:00pm 11.4 ESE 5 6 1023.5 - 0.0 - - - - - - -
06/09:30pm 10.8 ESE 5 6 1023.6 - 0.0 - - - - - - -
06/09:00pm 10.3 ESE 5 6 1023.4 - 0.0 - - - - - - -
06/08:30pm 9.3 ESE 5 6 1023.4 - 0.0 - - - - - - -
06/08:00pm 9.0 ESE 4 5 1023.3 - 0.0 - - - - - - -
06/07:30pm 8.8 SE 5 5 1023.0 - 0.0 - - - - - - -
06/07:00pm 10.6 SE 4 5 1022.7 - 0.0 - - - - - - -
06/06:30pm 12.0 SE 5 6 1022.5 - 0.0 - - - - - - -
06/06:00pm 12.8 SE 5 5 1022.3 - 0.0 - - - - - - -
06/05:30pm 14.3 SSE 5 8 1022.2 - 0.0 - - - - - - -
06/05:00pm 15.2 S 6 8 1022.1 - 0.0 - - - - - - -
06/04:30pm 15.9 S 6 8 1021.8 - 0.0 Haze Partly cloudy 25 - - - -
06/04:00pm 15.6 S 7 10 1021.8 - 0.0 - - - - - - -
06/03:30pm 16.0 SSE 7 10 1021.7 - 0.0 - - - - - - -
06/03:00pm 16.6 S 7 11 1021.7 - 0.0 - - - - - - -
06/02:30pm 16.5 S 6 9 1021.9 - 0.0 - - - - - - -
06/02:00pm 15.9 S 7 9 1022.1 - 0.0 - - - - - - -
06/01:30pm 16.1 S 6 9 1022.3 - 0.0 - - - - - - -
06/01:00pm 15.8 SSE 7 10 1022.6 - 0.0 - - - - - - -
06/12:30pm 15.5 S 7 9 1023.0 - 0.0 - - - - - - -
06/12:00pm 15.8 S 6 9 1023.1 - 0.0 - - - - - - -
06/11:30am 16.5 S 4 7 1023.3 - 0.0 - - - - - - -
06/11:00am 16.0 SSE 5 7 1023.5 - 0.0 - - - - - - -
06/10:30am 14.9 WNW 3 5 1023.4 - 0.0 Haze Mostly clear 15 - - - -
06/10:00am 13.9 NNW 4 5 1023.0 - 0.0 - - - - - - -
06/09:30am 11.1 NNW 4 4 1022.7 - 0.0 - - - - - - -
06/09:00am 9.2 NW 5 5 1022.4 - 0.0 - - - - - - -
06/08:30am 6.7 N 4 5 1021.9 - 0.0 - - - - - - -
06/08:00am 6.5 NNW 5 6 1021.8 - 0.0 - - - - - - -
06/07:30am 8.0 WNW 5 6 1021.8 - 0.0 - - - - - - -
06/07:00am 6.4 NNW 4 5 1021.3 - 0.0 - - - - - - -
06/06:30am 6.8 NNW 5 6 1021.2 - 0.0 - - - - - - -
06/06:00am 7.0 NW 3 6 1021.0 - 0.0 - - - - - - -
06/05:30am 7.9 W 4 4 1020.8 - 0.0 - - - - - - -
06/05:00am 8.8 WSW 4 5 1020.8 - 0.0 - - - - - - -
06/04:30am 11.0 SSW 5 6 1020.8 - 0.0 - - - - - - -
06/04:00am 11.3 SSW 4 5 1020.8 - 0.0 - - - - - - -
06/03:30am 11.8 SSW 5 6 1020.8 - 0.0 - - - - - - -
06/03:00am 11.7 SSW 5 7 1020.8 - 0.0 - - - - - - -
06/02:30am 12.1 SSW 6 8 1020.7 - 0.0 - - - - - - -
06/02:00am 12.5 SSW 6 8 1020.7 - 0.0 - - - - - - -
06/01:30am 12.8 SSW 5 6 1020.8 - 0.0 - - - - - - -
06/01:00am 12.5 SSW 4 6 1020.9 - 0.0 - - - - - - -
06/12:30am 12.6 SSW 5 8 1020.9 - 0.0 - - - - - - -
06/12:00am 12.6 SW 5 6 1021.0 - 0.0 - - - - - - -
 
Date/Time
CST
Temp

°C
Wind Pressure Rain
since 9am
mm
Weather Cloud Vis
km
Sea
Height
m
Swell
Dir
 
Speed
knots
Gust
knots
hPa Trend Height
m
Period
s
Dir
05/11:30pm 12.8 WSW 5 8 1021.0 - 0.0 - - - - - - -
05/11:00pm 13.1 WSW 6 8 1020.9 - 0.0 - - - - - - -
05/10:30pm 13.7 SW 6 9 1020.6 - 0.0 - - - - - - -
05/10:00pm 13.9 WSW 5 7 1020.4 - 0.0 - - - - - - -
05/09:30pm 14.1 SW 6 7 1020.2 - 0.0 - - - - - - -
05/09:00pm 14.0 WSW 5 7 1020.1 - 0.0 - - - - - - -
05/08:30pm 14.1 WSW 6 9 1020.0 - 0.0 - - - - - - -
05/08:00pm 14.2 SW 6 8 1019.6 - 0.0 - - - - - - -
05/07:30pm 14.4 WSW 5 7 1019.3 - 0.0 - - - - - - -
05/07:00pm 14.5 SW 6 7 1019.0 - 0.0 - - - - - - -
05/06:30pm 14.7 SW 6 8 1018.7 - 0.0 - - - - - - -
05/06:00pm 15.5 SW 5 8 1018.5 - 0.0 - - - - - - -
05/05:30pm 16.5 SW 7 10 1018.2 - 0.0 - - - - - - -
05/05:00pm 17.3 SW 9 14 1018.1 - 0.0 - - - - - - -
05/04:30pm 18.2 SSW 7 10 1017.8 - 0.0 - - - - - - -
05/04:00pm 18.6 SSW 8 12 1017.6 - 0.0 - - - - - - -
05/03:30pm 19.0 SSW 10 16 1017.5 - 0.0 - - - - - - -
05/03:00pm 19.7 SSW 11 17 1017.5 - 0.0 - - - - - - -
05/02:30pm 20.5 SSW 9 16 1017.3 - 0.0 - - - - - - -
05/02:00pm 20.8 SSW 9 16 1017.4 - 0.0 - - - - - - -
05/01:30pm 21.1 SSW 10 16 1017.7 - 0.0 - - - - - - -
05/01:00pm 21.2 SW 9 14 1018.1 - 0.0 - - - - - - -
05/12:30pm 20.9 WSW 10 14 1018.5 - 0.0 - - - - - - -
05/12:00pm 20.0 WSW 9 13 1018.7 - 0.0 - - - - - - -
05/11:30am 18.6 W 7 9 1018.8 - 0.0 - - - - - - -
05/11:00am 17.6 W 7 12 1019.0 - 0.0 - - - - - - -
05/10:30am 17.5 NW 7 11 1019.1 - 0.0 Fine Partly cloudy 40 - - - -
05/10:00am 14.1 WNW 6 9 1019.1 - 0.0 - - - - - - -
05/09:30am 13.6 NW 9 13 1019.2 - 0.0 - - - - - - -
05/09:00am 11.9 N 10 14 1018.6 - 0.0 - - - - - - -
05/08:30am 10.2 N 11 17 1018.5 - 0.0 - - - - - - -
05/08:00am 9.1 N 11 15 1018.3 - 0.0 - - - - - - -
05/07:30am 8.7 N 10 14 1018.1 - 0.0 - - - - - - -
05/07:00am 9.3 N 11 16 1017.9 - 0.0 - - - - - - -
05/06:30am 9.4 N 11 16 1017.7 - 0.0 - - - - - - -
05/06:00am 9.0 N 11 14 1017.6 - 0.0 - - - - - - -
05/05:30am 8.4 N 11 15 1017.6 - 0.0 - - - - - - -
05/05:00am 7.6 N 10 12 1017.8 - 0.0 - - - - - - -
05/04:30am 7.3 N 10 13 1017.9 - 0.0 - - - - - - -
05/04:00am 7.4 N 9 10 1018.0 - 0.0 - - - - - - -
05/03:30am 7.6 N 8 9 1018.2 - 0.0 - - - - - - -
05/03:00am 7.5 N 8 9 1018.5 - 0.0 - - - - - - -
05/02:30am 7.9 NNE 7 8 1018.6 - 0.0 - - - - - - -
05/02:00am 7.8 N 6 7 1018.9 - 0.0 - - - - - - -
05/01:30am 8.1 NNE 6 7 1019.3 - 0.0 - - - - - - -
05/01:00am 8.6 NNE 6 7 1019.5 - 0.0 - - - - - - -
05/12:30am 9.0 NNE 6 7 1019.7 - 0.0 - - - - - - -
05/12:00am 9.3 NNE 6 7 1020.0 - 0.0 - - - - - - -
 
Date/Time
CST
Temp

°C
Wind Pressure Rain
since 9am
mm
Weather Cloud Vis
km
Sea
Height
m
Swell
Dir
 
Speed
knots
Gust
knots
hPa Trend Height
m
Period
s
Dir
04/11:30pm 9.4 NNE 6 7 1020.1 - 0.0 - - - - - - -
04/11:00pm 9.5 NE 6 6 1020.3 - 0.0 - - - - - - -
04/10:30pm 10.0 NNE 5 6 1020.4 - 0.0 - - - - - - -
04/10:00pm 10.4 NNE 5 6 1020.4 - 0.0 - - - - - - -
04/09:30pm 11.9 NE 5 6 1020.4 - 0.0 - - - - - - -
04/09:00pm 12.1 NE 5 6 1020.6 - 0.0 - - - - - - -
04/08:30pm 12.2 ENE 5 6 1020.5 - 0.0 - - - - - - -

Other Formats:

Comma delimited format used in spreadsheet applications
http://www.bom.gov.au/fwo/IDS60701/IDS60701.94647.axf

JavaScript Object Notation format (JSON) in row-major order
http://www.bom.gov.au/fwo/IDS60701/IDS60701.94647.json